Fairmont, WV

3:21 PM EDT on September 20, 2014 (GMT -0400)
Buckhannon | Change Station
CLOSE
Current Station
Airport
Location: Buckhannon,
Elevation: 1634 ft
Nearby Weather Stations

Elev 1634 ft 39.00 °N, 80.27 °W | Updated 6 minutes ago

Partly Cloudy
Partly Cloudy
77 °F
Feels Like 77 °F
N
9
Wind Variable Wind from South

Today
High -- | Low -- °F
--% Chance of Precip.
Yesterday
High -- | Low -- °F
Precip. -- in
7:06 AM 7:20 PM
Waning Crescent, 11% visible
Pressure 30.10 in
Visibility 10.0 miles
Clouds Clear
Dew Point 59 °F
Humidity 54%
Rainfall 0.00 in
Snow Depth Not available.
UV 6 out of 12
Pollen 4.40 out of 12
Air Quality Not available.
Flu Activity Not available.
METAR KW22 201915Z AUTO 19008KT 10SM CLR 25/15 A3010 RMK AO2

More Conditions Fewer Conditions

Pressure 30.10 in
Visibility 10.0 miles
Clouds Clear
Dew Point 59 °F
Humidity 54%
Rainfall 0.00 in
Snow Depth Not available.
UV 6 out of 12
Pollen 4.40 out of 12
Air Quality Not available.
Flu Activity Not available.
METAR KW22 201915Z AUTO 19008KT 10SM CLR 25/15 A3010 RMK AO2

More Conditions Fewer Conditions

10-Day Weather Forecast

Almanac

Astronomy

Sep. 20, 2014 Rise Set
Actual Time 7:06 AM EDT 7:20 PM EDT
Civil Twilight 6:39 AM EDT 7:47 PM EDT
Nautical Twilight 6:07 AM EDT 8:19 PM EDT
Astronomical Twilight 5:35 AM EDT 8:50 PM EDT
Moon 3:44 AM EDT 5:22 PM EDT
Length of Visible Light 13h 08m
Length of Day
12h 14m
Tomorrow will be 2m 33s shorter.
Waning Crescent, 11% of the Moon is Illuminated
Today
Waning Crescent
Sep 24
New
Oct 1
First Quarter
Oct 8
Full
Oct 15
Last Quarter

Today's Extremes

State Highs State Lows

Community

WunderPhotos

Upload Photos

1,754,927 photos uploaded!

WunderBlogs® & News

Nearby

Snow Depth

Station Depth Elevation
No new snow has been reported.

Earthquake Activity

City Distance Mag. Time & Date
No recent earthquake activity has been reported nearby.
Minimum magnitude displayed is 2.5.

Coastal Water Temperatures

Place Temperature
No Stations Reporting

Nearby Weather Stations